sensor_id;sensor_type;location;lat;lon;timestamp;P1;durP1;ratioP1;P2;durP2;ratioP2
71513;SDS011;59335;46.652;21.272;2023-03-26T00:01:42;5.00;;;2.00;;
71513;SDS011;59335;46.652;21.272;2023-03-26T00:04:47;4.10;;;2.17;;
71513;SDS011;59335;46.652;21.272;2023-03-26T00:07:51;4.18;;;2.03;;
71513;SDS011;59335;46.652;21.272;2023-03-26T00:10:54;4.40;;;2.00;;
71513;SDS011;59335;46.652;21.272;2023-03-26T00:13:57;4.60;;;2.20;;
71513;SDS011;59335;46.652;21.272;2023-03-26T00:17:00;3.77;;;2.10;;
71513;SDS011;59335;46.652;21.272;2023-03-26T00:20:03;3.75;;;1.90;;
71513;SDS011;59335;46.652;21.272;2023-03-26T00:23:07;4.72;;;1.98;;
71513;SDS011;59335;46.652;21.272;2023-03-26T00:26:10;4.30;;;2.17;;
71513;SDS011;59335;46.652;21.272;2023-03-26T00:29:14;5.25;;;2.25;;
71513;SDS011;59335;46.652;21.272;2023-03-26T00:32:17;4.97;;;1.90;;
71513;SDS011;59335;46.652;21.272;2023-03-26T00:35:20;4.05;;;1.92;;
71513;SDS011;59335;46.652;21.272;2023-03-26T00:38:24;4.32;;;2.00;;
71513;SDS011;59335;46.652;21.272;2023-03-26T00:41:27;3.97;;;1.88;;
71513;SDS011;59335;46.652;21.272;2023-03-26T00:44:33;4.75;;;2.10;;
71513;SDS011;59335;46.652;21.272;2023-03-26T00:47:36;4.30;;;1.73;;
71513;SDS011;59335;46.652;21.272;2023-03-26T00:50:42;3.83;;;1.80;;
71513;SDS011;59335;46.652;21.272;2023-03-26T00:53:48;4.10;;;2.00;;
71513;SDS011;59335;46.652;21.272;2023-03-26T00:56:52;3.67;;;1.90;;
71513;SDS011;59335;46.652;21.272;2023-03-26T00:59:57;4.38;;;1.90;;
71513;SDS011;59335;46.652;21.272;2023-03-26T01:03:00;4.33;;;2.03;;
71513;SDS011;59335;46.652;21.272;2023-03-26T01:06:05;4.00;;;1.90;;
71513;SDS011;59335;46.652;21.272;2023-03-26T01:09:25;4.47;;;2.00;;
71513;SDS011;59335;46.652;21.272;2023-03-26T01:12:34;3.60;;;1.70;;
71513;SDS011;59335;46.652;21.272;2023-03-26T01:15:37;4.38;;;2.10;;
71513;SDS011;59335;46.652;21.272;2023-03-26T01:18:40;4.07;;;1.80;;
71513;SDS011;59335;46.652;21.272;2023-03-26T01:21:43;4.22;;;1.70;;
71513;SDS011;59335;46.652;21.272;2023-03-26T01:24:46;4.35;;;1.73;;
71513;SDS011;59335;46.652;21.272;2023-03-26T01:27:55;3.90;;;1.98;;
71513;SDS011;59335;46.652;21.272;2023-03-26T01:31:07;4.45;;;2.00;;
71513;SDS011;59335;46.652;21.272;2023-03-26T01:41:07;3.92;;;2.10;;
71513;SDS011;59335;46.652;21.272;2023-03-26T01:44:32;3.28;;;1.83;;
71513;SDS011;59335;46.652;21.272;2023-03-26T01:47:40;3.92;;;1.90;;
71513;SDS011;59335;46.652;21.272;2023-03-26T01:50:44;4.53;;;1.80;;
71513;SDS011;59335;46.652;21.272;2023-03-26T01:53:47;4.32;;;1.80;;
71513;SDS011;59335;46.652;21.272;2023-03-26T02:03:42;4.00;;;2.00;;
71513;SDS011;59335;46.652;21.272;2023-03-26T02:06:58;3.90;;;1.60;;
71513;SDS011;59335;46.652;21.272;2023-03-26T02:10:15;3.95;;;1.70;;
71513;SDS011;59335;46.652;21.272;2023-03-26T02:13:22;4.65;;;1.92;;
71513;SDS011;59335;46.652;21.272;2023-03-26T02:16:26;3.65;;;1.80;;
71513;SDS011;59335;46.652;21.272;2023-03-26T02:19:29;3.95;;;1.88;;
71513;SDS011;59335;46.652;21.272;2023-03-26T02:22:32;3.73;;;1.60;;
71513;SDS011;59335;46.652;21.272;2023-03-26T02:25:35;3.00;;;1.50;;
71513;SDS011;59335;46.652;21.272;2023-03-26T02:28:41;3.80;;;1.65;;
71513;SDS011;59335;46.652;21.272;2023-03-26T02:31:44;3.70;;;1.98;;
71513;SDS011;59335;46.652;21.272;2023-03-26T02:34:51;3.65;;;1.80;;
71513;SDS011;59335;46.652;21.272;2023-03-26T02:37:54;4.10;;;2.00;;
71513;SDS011;59335;46.652;21.272;2023-03-26T02:40:58;4.32;;;1.80;;
71513;SDS011;59335;46.652;21.272;2023-03-26T02:44:11;3.47;;;1.63;;
71513;SDS011;59335;46.652;21.272;2023-03-26T02:47:43;3.33;;;1.70;;
71513;SDS011;59335;46.652;21.272;2023-03-26T02:51:26;4.25;;;1.73;;
71513;SDS011;59335;46.652;21.272;2023-03-26T02:54:52;3.67;;;1.80;;
71513;SDS011;59335;46.652;21.272;2023-03-26T02:57:57;4.20;;;2.00;;
71513;SDS011;59335;46.652;21.272;2023-03-26T03:01:08;4.07;;;1.92;;
71513;SDS011;59335;46.652;21.272;2023-03-26T03:04:21;3.60;;;1.60;;
71513;SDS011;59335;46.652;21.272;2023-03-26T03:07:24;3.70;;;1.70;;
71513;SDS011;59335;46.652;21.272;2023-03-26T03:10:27;3.33;;;1.60;;
71513;SDS011;59335;46.652;21.272;2023-03-26T03:13:43;3.47;;;1.70;;
71513;SDS011;59335;46.652;21.272;2023-03-26T03:16:49;3.40;;;1.65;;
71513;SDS011;59335;46.652;21.272;2023-03-26T03:19:53;3.83;;;1.67;;
71513;SDS011;59335;46.652;21.272;2023-03-26T03:22:55;3.78;;;1.70;;
71513;SDS011;59335;46.652;21.272;2023-03-26T03:25:58;3.80;;;1.60;;
71513;SDS011;59335;46.652;21.272;2023-03-26T03:29:01;3.58;;;1.98;;
71513;SDS011;59335;46.652;21.272;2023-03-26T03:32:03;4.57;;;1.92;;
71513;SDS011;59335;46.652;21.272;2023-03-26T03:35:32;3.85;;;1.70;;
71513;SDS011;59335;46.652;21.272;2023-03-26T03:38:36;3.88;;;1.85;;
71513;SDS011;59335;46.652;21.272;2023-03-26T03:41:40;3.43;;;1.50;;
71513;SDS011;59335;46.652;21.272;2023-03-26T03:44:47;3.65;;;1.80;;
71513;SDS011;59335;46.652;21.272;2023-03-26T03:48:16;3.30;;;1.42;;
71513;SDS011;59335;46.652;21.272;2023-03-26T03:51:21;3.00;;;1.50;;
71513;SDS011;59335;46.652;21.272;2023-03-26T03:54:28;2.80;;;1.30;;
71513;SDS011;59335;46.652;21.272;2023-03-26T03:57:52;3.50;;;1.57;;
71513;SDS011;59335;46.652;21.272;2023-03-26T04:00:58;3.85;;;2.00;;
71513;SDS011;59335;46.652;21.272;2023-03-26T04:04:25;3.17;;;1.50;;
71513;SDS011;59335;46.652;21.272;2023-03-26T04:07:36;3.05;;;1.52;;
71513;SDS011;59335;46.652;21.272;2023-03-26T04:10:39;3.70;;;1.70;;
71513;SDS011;59335;46.652;21.272;2023-03-26T04:13:50;3.40;;;1.60;;
71513;SDS011;59335;46.652;21.272;2023-03-26T04:17:19;3.28;;;1.38;;
71513;SDS011;59335;46.652;21.272;2023-03-26T04:20:24;3.47;;;1.63;;
71513;SDS011;59335;46.652;21.272;2023-03-26T04:23:28;3.50;;;1.45;;
71513;SDS011;59335;46.652;21.272;2023-03-26T04:26:36;3.80;;;1.58;;
71513;SDS011;59335;46.652;21.272;2023-03-26T04:29:45;3.30;;;1.60;;
71513;SDS011;59335;46.652;21.272;2023-03-26T04:32:55;2.63;;;1.45;;
71513;SDS011;59335;46.652;21.272;2023-03-26T04:36:02;3.03;;;1.60;;
71513;SDS011;59335;46.652;21.272;2023-03-26T04:39:09;3.28;;;1.50;;
71513;SDS011;59335;46.652;21.272;2023-03-26T04:42:35;2.67;;;1.40;;
71513;SDS011;59335;46.652;21.272;2023-03-26T04:45:50;3.23;;;1.30;;
71513;SDS011;59335;46.652;21.272;2023-03-26T04:48:55;3.58;;;1.50;;
71513;SDS011;59335;46.652;21.272;2023-03-26T04:51:59;4.10;;;1.83;;
71513;SDS011;59335;46.652;21.272;2023-03-26T04:55:35;2.55;;;1.10;;
71513;SDS011;59335;46.652;21.272;2023-03-26T04:58:51;3.17;;;1.52;;
71513;SDS011;59335;46.652;21.272;2023-03-26T05:02:00;3.57;;;1.70;;
71513;SDS011;59335;46.652;21.272;2023-03-26T05:05:11;3.63;;;1.60;;
71513;SDS011;59335;46.652;21.272;2023-03-26T05:08:14;3.25;;;1.45;;
71513;SDS011;59335;46.652;21.272;2023-03-26T05:11:17;3.28;;;1.60;;
71513;SDS011;59335;46.652;21.272;2023-03-26T05:14:20;2.47;;;1.33;;
71513;SDS011;59335;46.652;21.272;2023-03-26T05:17:24;2.53;;;1.30;;
71513;SDS011;59335;46.652;21.272;2023-03-26T05:20:30;2.70;;;1.50;;
71513;SDS011;59335;46.652;21.272;2023-03-26T05:23:33;3.22;;;1.63;;
71513;SDS011;59335;46.652;21.272;2023-03-26T05:26:46;3.38;;;1.48;;
71513;SDS011;59335;46.652;21.272;2023-03-26T05:29:50;3.88;;;1.60;;
71513;SDS011;59335;46.652;21.272;2023-03-26T05:32:53;2.63;;;1.40;;
71513;SDS011;59335;46.652;21.272;2023-03-26T05:36:02;3.78;;;1.83;;
71513;SDS011;59335;46.652;21.272;2023-03-26T05:39:07;3.05;;;1.40;;
71513;SDS011;59335;46.652;21.272;2023-03-26T05:42:28;3.42;;;1.55;;
71513;SDS011;59335;46.652;21.272;2023-03-26T05:45:55;2.70;;;1.33;;
71513;SDS011;59335;46.652;21.272;2023-03-26T05:49:04;3.73;;;1.63;;
71513;SDS011;59335;46.652;21.272;2023-03-26T05:52:09;2.92;;;1.30;;
71513;SDS011;59335;46.652;21.272;2023-03-26T05:55:39;3.10;;;1.40;;
71513;SDS011;59335;46.652;21.272;2023-03-26T05:59:00;3.20;;;1.60;;
71513;SDS011;59335;46.652;21.272;2023-03-26T06:02:29;2.90;;;1.35;;
71513;SDS011;59335;46.652;21.272;2023-03-26T06:06:06;4.43;;;1.50;;
71513;SDS011;59335;46.652;21.272;2023-03-26T06:09:19;2.58;;;1.30;;
71513;SDS011;59335;46.652;21.272;2023-03-26T06:12:23;3.17;;;1.60;;
71513;SDS011;59335;46.652;21.272;2023-03-26T06:15:25;3.55;;;1.70;;
71513;SDS011;59335;46.652;21.272;2023-03-26T06:18:34;3.03;;;1.50;;
71513;SDS011;59335;46.652;21.272;2023-03-26T06:21:46;3.53;;;1.70;;
71513;SDS011;59335;46.652;21.272;2023-03-26T06:24:54;2.92;;;1.58;;
71513;SDS011;59335;46.652;21.272;2023-03-26T06:28:26;3.13;;;1.20;;
71513;SDS011;59335;46.652;21.272;2023-03-26T06:31:46;2.55;;;1.30;;
71513;SDS011;59335;46.652;21.272;2023-03-26T06:34:55;3.17;;;1.52;;
71513;SDS011;59335;46.652;21.272;2023-03-26T06:37:58;3.10;;;1.33;;
71513;SDS011;59335;46.652;21.272;2023-03-26T06:41:05;3.20;;;1.60;;
71513;SDS011;59335;46.652;21.272;2023-03-26T06:44:29;3.45;;;1.40;;
71513;SDS011;59335;46.652;21.272;2023-03-26T06:47:50;3.17;;;1.52;;
71513;SDS011;59335;46.652;21.272;2023-03-26T06:50:53;3.03;;;1.58;;
71513;SDS011;59335;46.652;21.272;2023-03-26T06:54:15;2.67;;;1.50;;
71513;SDS011;59335;46.652;21.272;2023-03-26T06:57:17;2.72;;;1.42;;
71513;SDS011;59335;46.652;21.272;2023-03-26T07:00:39;2.95;;;1.50;;
71513;SDS011;59335;46.652;21.272;2023-03-26T07:04:15;2.85;;;1.30;;
71513;SDS011;59335;46.652;21.272;2023-03-26T07:07:36;2.47;;;1.50;;
71513;SDS011;59335;46.652;21.272;2023-03-26T07:11:06;2.50;;;1.20;;
71513;SDS011;59335;46.652;21.272;2023-03-26T07:14:33;3.00;;;1.40;;
71513;SDS011;59335;46.652;21.272;2023-03-26T07:17:51;2.75;;;1.10;;
71513;SDS011;59335;46.652;21.272;2023-03-26T07:21:07;3.40;;;1.40;;
71513;SDS011;59335;46.652;21.272;2023-03-26T07:24:10;2.00;;;1.35;;
71513;SDS011;59335;46.652;21.272;2023-03-26T07:42:45;2.47;;;1.40;;
71513;SDS011;59335;46.652;21.272;2023-03-26T07:46:15;2.23;;;1.20;;
71513;SDS011;59335;46.652;21.272;2023-03-26T07:49:25;1.85;;;1.02;;
71513;SDS011;59335;46.652;21.272;2023-03-26T07:52:47;2.67;;;1.30;;
71513;SDS011;59335;46.652;21.272;2023-03-26T07:56:18;2.53;;;1.55;;
71513;SDS011;59335;46.652;21.272;2023-03-26T07:59:38;3.78;;;1.45;;
71513;SDS011;59335;46.652;21.272;2023-03-26T08:17:48;2.95;;;1.38;;
71513;SDS011;59335;46.652;21.272;2023-03-26T08:21:01;2.80;;;1.20;;
71513;SDS011;59335;46.652;21.272;2023-03-26T08:27:21;2.92;;;1.20;;
71513;SDS011;59335;46.652;21.272;2023-03-26T08:30:31;2.50;;;1.30;;
71513;SDS011;59335;46.652;21.272;2023-03-26T08:33:34;2.72;;;1.10;;
71513;SDS011;59335;46.652;21.272;2023-03-26T08:36:39;2.77;;;1.40;;
71513;SDS011;59335;46.652;21.272;2023-03-26T08:39:42;2.53;;;1.27;;
71513;SDS011;59335;46.652;21.272;2023-03-26T08:49:41;2.28;;;1.10;;
71513;SDS011;59335;46.652;21.272;2023-03-26T08:55:58;2.60;;;1.23;;
71513;SDS011;59335;46.652;21.272;2023-03-26T08:59:40;3.53;;;1.23;;
71513;SDS011;59335;46.652;21.272;2023-03-26T09:39:45;1.98;;;0.93;;
71513;SDS011;59335;46.652;21.272;2023-03-26T10:10:34;2.97;;;1.10;;
71513;SDS011;59335;46.652;21.272;2023-03-26T10:14:07;2.42;;;1.02;;
71513;SDS011;59335;46.652;21.272;2023-03-26T10:20:46;1.75;;;0.75;;
71513;SDS011;59335;46.652;21.272;2023-03-26T10:23:53;2.22;;;0.93;;
71513;SDS011;59335;46.652;21.272;2023-03-26T10:37:20;1.63;;;1.10;;
71513;SDS011;59335;46.652;21.272;2023-03-26T10:53:57;2.50;;;1.00;;
71513;SDS011;59335;46.652;21.272;2023-03-26T10:57:16;2.05;;;0.80;;
71513;SDS011;59335;46.652;21.272;2023-03-26T11:00:21;2.88;;;1.10;;
71513;SDS011;59335;46.652;21.272;2023-03-26T11:06:57;2.43;;;0.90;;
71513;SDS011;59335;46.652;21.272;2023-03-26T11:16:28;2.58;;;1.00;;
71513;SDS011;59335;46.652;21.272;2023-03-26T11:19:45;2.45;;;0.90;;
71513;SDS011;59335;46.652;21.272;2023-03-26T11:23:05;2.30;;;1.10;;
71513;SDS011;59335;46.652;21.272;2023-03-26T11:33:50;2.40;;;1.13;;
71513;SDS011;59335;46.652;21.272;2023-03-26T11:36:57;2.17;;;0.90;;
71513;SDS011;59335;46.652;21.272;2023-03-26T11:40:03;2.17;;;0.80;;
71513;SDS011;59335;46.652;21.272;2023-03-26T11:43:16;2.13;;;1.00;;
71513;SDS011;59335;46.652;21.272;2023-03-26T11:46:24;2.22;;;0.90;;
71513;SDS011;59335;46.652;21.272;2023-03-26T11:49:28;2.13;;;1.10;;
71513;SDS011;59335;46.652;21.272;2023-03-26T11:52:32;2.45;;;0.95;;
71513;SDS011;59335;46.652;21.272;2023-03-26T11:55:35;2.13;;;0.80;;
71513;SDS011;59335;46.652;21.272;2023-03-26T11:58:45;1.65;;;0.80;;
71513;SDS011;59335;46.652;21.272;2023-03-26T12:05:18;1.77;;;0.77;;
71513;SDS011;59335;46.652;21.272;2023-03-26T12:08:37;1.83;;;1.05;;
71513;SDS011;59335;46.652;21.272;2023-03-26T12:11:44;1.90;;;1.00;;
71513;SDS011;59335;46.652;21.272;2023-03-26T12:14:49;1.83;;;0.70;;
71513;SDS011;59335;46.652;21.272;2023-03-26T12:17:53;1.90;;;0.80;;
71513;SDS011;59335;46.652;21.272;2023-03-26T12:21:01;1.73;;;0.98;;
71513;SDS011;59335;46.652;21.272;2023-03-26T12:24:11;2.30;;;0.80;;
71513;SDS011;59335;46.652;21.272;2023-03-26T12:27:30;1.90;;;0.80;;
71513;SDS011;59335;46.652;21.272;2023-03-26T12:30:36;2.67;;;0.80;;
71513;SDS011;59335;46.652;21.272;2023-03-26T12:33:41;1.38;;;0.80;;
71513;SDS011;59335;46.652;21.272;2023-03-26T12:36:50;2.60;;;1.10;;
71513;SDS011;59335;46.652;21.272;2023-03-26T12:40:40;1.95;;;0.80;;
71513;SDS011;59335;46.652;21.272;2023-03-26T12:43:30;2.40;;;0.93;;
71513;SDS011;59335;46.652;21.272;2023-03-26T12:47:21;2.55;;;0.90;;
71513;SDS011;59335;46.652;21.272;2023-03-26T12:54:12;2.42;;;1.23;;
71513;SDS011;59335;46.652;21.272;2023-03-26T12:57:20;2.95;;;1.00;;
71513;SDS011;59335;46.652;21.272;2023-03-26T13:14:47;1.60;;;0.90;;
71513;SDS011;59335;46.652;21.272;2023-03-26T13:18:17;1.70;;;0.67;;
71513;SDS011;59335;46.652;21.272;2023-03-26T13:45:13;0.95;;;0.60;;
71513;SDS011;59335;46.652;21.272;2023-03-26T13:48:46;2.55;;;0.95;;
71513;SDS011;59335;46.652;21.272;2023-03-26T13:51:57;1.50;;;0.80;;
71513;SDS011;59335;46.652;21.272;2023-03-26T13:58:33;1.52;;;0.80;;
71513;SDS011;59335;46.652;21.272;2023-03-26T14:02:02;1.60;;;0.90;;
71513;SDS011;59335;46.652;21.272;2023-03-26T14:15:01;2.35;;;1.00;;
71513;SDS011;59335;46.652;21.272;2023-03-26T14:18:19;1.70;;;1.00;;
71513;SDS011;59335;46.652;21.272;2023-03-26T14:28:29;2.72;;;1.10;;
71513;SDS011;59335;46.652;21.272;2023-03-26T14:41:47;2.57;;;0.97;;
71513;SDS011;59335;46.652;21.272;2023-03-26T14:45:08;1.45;;;0.90;;
71513;SDS011;59335;46.652;21.272;2023-03-26T14:48:48;1.13;;;0.60;;
71513;SDS011;59335;46.652;21.272;2023-03-26T14:56:48;1.63;;;0.90;;
71513;SDS011;59335;46.652;21.272;2023-03-26T15:45:34;1.17;;;0.75;;
71513;SDS011;59335;46.652;21.272;2023-03-26T15:48:42;2.15;;;0.80;;
71513;SDS011;59335;46.652;21.272;2023-03-26T15:52:14;0.87;;;0.73;;
71513;SDS011;59335;46.652;21.272;2023-03-26T15:55:39;1.67;;;0.80;;
71513;SDS011;59335;46.652;21.272;2023-03-26T15:59:13;1.48;;;0.82;;
71513;SDS011;59335;46.652;21.272;2023-03-26T16:02:39;1.98;;;0.90;;
71513;SDS011;59335;46.652;21.272;2023-03-26T16:09:35;2.60;;;1.07;;
71513;SDS011;59335;46.652;21.272;2023-03-26T16:12:47;1.05;;;0.68;;
71513;SDS011;59335;46.652;21.272;2023-03-26T16:22:40;1.63;;;0.80;;
71513;SDS011;59335;46.652;21.272;2023-03-26T16:26:10;2.33;;;0.80;;
71513;SDS011;59335;46.652;21.272;2023-03-26T16:29:19;1.70;;;0.73;;
71513;SDS011;59335;46.652;21.272;2023-03-26T16:32:40;1.83;;;0.80;;
71513;SDS011;59335;46.652;21.272;2023-03-26T16:36:03;1.77;;;0.90;;
71513;SDS011;59335;46.652;21.272;2023-03-26T16:39:21;0.90;;;0.70;;
71513;SDS011;59335;46.652;21.272;2023-03-26T16:42:54;3.17;;;0.90;;
71513;SDS011;59335;46.652;21.272;2023-03-26T16:49:21;1.45;;;0.70;;
71513;SDS011;59335;46.652;21.272;2023-03-26T16:52:34;1.40;;;0.70;;
71513;SDS011;59335;46.652;21.272;2023-03-26T16:56:00;1.77;;;0.80;;
71513;SDS011;59335;46.652;21.272;2023-03-26T16:59:30;2.23;;;0.80;;
71513;SDS011;59335;46.652;21.272;2023-03-26T17:13:45;1.45;;;0.70;;
71513;SDS011;59335;46.652;21.272;2023-03-26T17:27:06;1.73;;;0.98;;
71513;SDS011;59335;46.652;21.272;2023-03-26T17:30:40;3.22;;;1.05;;
71513;SDS011;59335;46.652;21.272;2023-03-26T17:34:30;1.33;;;0.70;;
71513;SDS011;59335;46.652;21.272;2023-03-26T17:37:48;3.33;;;1.15;;
71513;SDS011;59335;46.652;21.272;2023-03-26T17:40:53;2.10;;;0.88;;
71513;SDS011;59335;46.652;21.272;2023-03-26T17:44:04;1.95;;;0.90;;
71513;SDS011;59335;46.652;21.272;2023-03-26T17:51:30;1.00;;;0.60;;
71513;SDS011;59335;46.652;21.272;2023-03-26T17:54:55;1.95;;;0.90;;
71513;SDS011;59335;46.652;21.272;2023-03-26T17:58:34;1.85;;;0.82;;
71513;SDS011;59335;46.652;21.272;2023-03-26T18:01:44;3.13;;;0.80;;
71513;SDS011;59335;46.652;21.272;2023-03-26T18:04:50;1.52;;;0.75;;
71513;SDS011;59335;46.652;21.272;2023-03-26T18:08:03;2.10;;;1.00;;
71513;SDS011;59335;46.652;21.272;2023-03-26T18:14:36;2.65;;;0.90;;
71513;SDS011;59335;46.652;21.272;2023-03-26T18:17:54;3.20;;;1.20;;
71513;SDS011;59335;46.652;21.272;2023-03-26T18:21:35;2.83;;;1.08;;
71513;SDS011;59335;46.652;21.272;2023-03-26T18:24:41;1.77;;;1.00;;
71513;SDS011;59335;46.652;21.272;2023-03-26T18:27:47;1.92;;;1.10;;
71513;SDS011;59335;46.652;21.272;2023-03-26T18:30:51;2.47;;;0.90;;
71513;SDS011;59335;46.652;21.272;2023-03-26T18:33:57;2.25;;;0.90;;
71513;SDS011;59335;46.652;21.272;2023-03-26T18:40:31;2.23;;;0.80;;
71513;SDS011;59335;46.652;21.272;2023-03-26T18:43:44;1.77;;;0.80;;
71513;SDS011;59335;46.652;21.272;2023-03-26T18:46:48;2.55;;;1.10;;
71513;SDS011;59335;46.652;21.272;2023-03-26T18:49:59;2.58;;;1.10;;
71513;SDS011;59335;46.652;21.272;2023-03-26T18:53:04;2.05;;;1.10;;
71513;SDS011;59335;46.652;21.272;2023-03-26T18:59:33;1.60;;;1.00;;
71513;SDS011;59335;46.652;21.272;2023-03-26T19:02:43;2.30;;;1.02;;
71513;SDS011;59335;46.652;21.272;2023-03-26T19:05:49;2.05;;;1.10;;
71513;SDS011;59335;46.652;21.272;2023-03-26T19:08:56;2.13;;;0.80;;
71513;SDS011;59335;46.652;21.272;2023-03-26T19:12:05;2.10;;;1.00;;
71513;SDS011;59335;46.652;21.272;2023-03-26T19:15:15;2.67;;;1.00;;
71513;SDS011;59335;46.652;21.272;2023-03-26T19:18:21;3.08;;;1.20;;
71513;SDS011;59335;46.652;21.272;2023-03-26T19:21:32;2.00;;;1.00;;
71513;SDS011;59335;46.652;21.272;2023-03-26T19:24:39;2.67;;;1.20;;
71513;SDS011;59335;46.652;21.272;2023-03-26T19:27:44;2.43;;;1.00;;
71513;SDS011;59335;46.652;21.272;2023-03-26T19:30:53;2.38;;;1.25;;
71513;SDS011;59335;46.652;21.272;2023-03-26T19:34:02;3.67;;;1.02;;
71513;SDS011;59335;46.652;21.272;2023-03-26T19:37:27;2.45;;;1.02;;
71513;SDS011;59335;46.652;21.272;2023-03-26T19:40:36;2.63;;;1.40;;
71513;SDS011;59335;46.652;21.272;2023-03-26T19:43:48;3.17;;;1.10;;
71513;SDS011;59335;46.652;21.272;2023-03-26T19:53:34;2.58;;;1.10;;
71513;SDS011;59335;46.652;21.272;2023-03-26T19:56:45;2.58;;;1.05;;
71513;SDS011;59335;46.652;21.272;2023-03-26T19:59:50;4.63;;;1.20;;
71513;SDS011;59335;46.652;21.272;2023-03-26T20:02:54;2.70;;;1.13;;
71513;SDS011;59335;46.652;21.272;2023-03-26T20:05:58;2.58;;;1.13;;
71513;SDS011;59335;46.652;21.272;2023-03-26T20:09:02;2.30;;;1.10;;
71513;SDS011;59335;46.652;21.272;2023-03-26T20:12:08;2.42;;;1.00;;
71513;SDS011;59335;46.652;21.272;2023-03-26T20:15:17;3.17;;;1.10;;
71513;SDS011;59335;46.652;21.272;2023-03-26T20:18:28;2.75;;;1.00;;
71513;SDS011;59335;46.652;21.272;2023-03-26T20:21:32;2.58;;;1.15;;
71513;SDS011;59335;46.652;21.272;2023-03-26T20:24:43;1.88;;;0.90;;
71513;SDS011;59335;46.652;21.272;2023-03-26T20:27:47;2.72;;;1.02;;
71513;SDS011;59335;46.652;21.272;2023-03-26T20:30:54;4.37;;;1.40;;
71513;SDS011;59335;46.652;21.272;2023-03-26T20:33:59;3.47;;;1.38;;
71513;SDS011;59335;46.652;21.272;2023-03-26T20:37:02;2.35;;;1.23;;
71513;SDS011;59335;46.652;21.272;2023-03-26T20:40:06;3.35;;;1.33;;
71513;SDS011;59335;46.652;21.272;2023-03-26T20:43:15;3.08;;;1.20;;
71513;SDS011;59335;46.652;21.272;2023-03-26T20:46:23;3.17;;;1.30;;
71513;SDS011;59335;46.652;21.272;2023-03-26T20:49:32;2.95;;;1.33;;
71513;SDS011;59335;46.652;21.272;2023-03-26T20:52:36;2.83;;;1.10;;
71513;SDS011;59335;46.652;21.272;2023-03-26T20:55:39;2.25;;;1.00;;
71513;SDS011;59335;46.652;21.272;2023-03-26T20:58:46;3.08;;;1.40;;
71513;SDS011;59335;46.652;21.272;2023-03-26T21:02:11;2.40;;;1.30;;
71513;SDS011;59335;46.652;21.272;2023-03-26T21:05:14;2.88;;;1.25;;
71513;SDS011;59335;46.652;21.272;2023-03-26T21:08:20;3.72;;;1.23;;
71513;SDS011;59335;46.652;21.272;2023-03-26T21:14:54;3.35;;;1.48;;
71513;SDS011;59335;46.652;21.272;2023-03-26T21:17:57;3.33;;;1.40;;
71513;SDS011;59335;46.652;21.272;2023-03-26T21:21:05;3.97;;;1.45;;
71513;SDS011;59335;46.652;21.272;2023-03-26T21:24:26;4.22;;;1.42;;
71513;SDS011;59335;46.652;21.272;2023-03-26T21:30:44;3.92;;;1.52;;
71513;SDS011;59335;46.652;21.272;2023-03-26T21:33:48;3.87;;;1.63;;
71513;SDS011;59335;46.652;21.272;2023-03-26T21:36:52;3.95;;;1.70;;
71513;SDS011;59335;46.652;21.272;2023-03-26T21:39:55;2.83;;;1.25;;
71513;SDS011;59335;46.652;21.272;2023-03-26T21:42:58;4.65;;;1.25;;
71513;SDS011;59335;46.652;21.272;2023-03-26T21:46:01;3.75;;;1.45;;
71513;SDS011;59335;46.652;21.272;2023-03-26T21:49:04;4.53;;;1.57;;
71513;SDS011;59335;46.652;21.272;2023-03-26T21:52:09;3.35;;;1.27;;
71513;SDS011;59335;46.652;21.272;2023-03-26T21:55:19;3.70;;;1.35;;
71513;SDS011;59335;46.652;21.272;2023-03-26T21:58:33;4.18;;;1.60;;
71513;SDS011;59335;46.652;21.272;2023-03-26T22:02:06;3.15;;;1.60;;
71513;SDS011;59335;46.652;21.272;2023-03-26T22:05:39;4.07;;;1.60;;
71513;SDS011;59335;46.652;21.272;2023-03-26T22:08:46;3.47;;;1.45;;
71513;SDS011;59335;46.652;21.272;2023-03-26T22:11:49;3.30;;;1.42;;
71513;SDS011;59335;46.652;21.272;2023-03-26T22:14:53;4.25;;;1.88;;
71513;SDS011;59335;46.652;21.272;2023-03-26T22:17:59;4.90;;;1.52;;
71513;SDS011;59335;46.652;21.272;2023-03-26T22:21:04;4.37;;;1.60;;
71513;SDS011;59335;46.652;21.272;2023-03-26T22:24:07;4.35;;;1.52;;
71513;SDS011;59335;46.652;21.272;2023-03-26T22:27:09;4.63;;;1.70;;
71513;SDS011;59335;46.652;21.272;2023-03-26T22:30:15;3.45;;;1.30;;
71513;SDS011;59335;46.652;21.272;2023-03-26T22:33:18;3.60;;;1.60;;
71513;SDS011;59335;46.652;21.272;2023-03-26T22:36:21;4.23;;;1.50;;
71513;SDS011;59335;46.652;21.272;2023-03-26T22:39:26;4.72;;;2.00;;
71513;SDS011;59335;46.652;21.272;2023-03-26T22:42:28;4.90;;;1.50;;
71513;SDS011;59335;46.652;21.272;2023-03-26T22:45:32;4.22;;;1.60;;
71513;SDS011;59335;46.652;21.272;2023-03-26T22:48:34;4.13;;;1.80;;
71513;SDS011;59335;46.652;21.272;2023-03-26T22:51:37;3.43;;;1.60;;
71513;SDS011;59335;46.652;21.272;2023-03-26T22:54:40;3.60;;;1.50;;
71513;SDS011;59335;46.652;21.272;2023-03-26T22:57:43;4.18;;;1.65;;
71513;SDS011;59335;46.652;21.272;2023-03-26T23:00:46;3.58;;;1.38;;
71513;SDS011;59335;46.652;21.272;2023-03-26T23:03:52;4.90;;;1.77;;
71513;SDS011;59335;46.652;21.272;2023-03-26T23:06:56;4.27;;;1.73;;
71513;SDS011;59335;46.652;21.272;2023-03-26T23:09:59;3.88;;;1.70;;
71513;SDS011;59335;46.652;21.272;2023-03-26T23:13:01;4.18;;;1.60;;
71513;SDS011;59335;46.652;21.272;2023-03-26T23:16:05;3.92;;;1.60;;
71513;SDS011;59335;46.652;21.272;2023-03-26T23:19:08;4.90;;;1.70;;
71513;SDS011;59335;46.652;21.272;2023-03-26T23:22:11;3.60;;;1.77;;
71513;SDS011;59335;46.652;21.272;2023-03-26T23:25:14;2.88;;;1.50;;
71513;SDS011;59335;46.652;21.272;2023-03-26T23:28:17;3.10;;;1.58;;
71513;SDS011;59335;46.652;21.272;2023-03-26T23:31:20;3.42;;;1.55;;
71513;SDS011;59335;46.652;21.272;2023-03-26T23:34:22;3.95;;;1.63;;
71513;SDS011;59335;46.652;21.272;2023-03-26T23:37:26;3.77;;;1.57;;
71513;SDS011;59335;46.652;21.272;2023-03-26T23:40:32;3.70;;;1.33;;
71513;SDS011;59335;46.652;21.272;2023-03-26T23:43:34;3.50;;;1.48;;
71513;SDS011;59335;46.652;21.272;2023-03-26T23:46:37;4.45;;;1.60;;
71513;SDS011;59335;46.652;21.272;2023-03-26T23:49:43;3.65;;;1.52;;
71513;SDS011;59335;46.652;21.272;2023-03-26T23:52:46;3.83;;;1.70;;
71513;SDS011;59335;46.652;21.272;2023-03-26T23:55:50;3.60;;;1.70;;
71513;SDS011;59335;46.652;21.272;2023-03-26T23:58:55;3.70;;;1.70;;
